createdAt,value
2023-01-05T00:01:54.221Z,100.00
2023-01-05T00:04:21.429Z,100.00
2023-01-05T00:06:51.081Z,100.00
2023-01-05T00:09:19.211Z,100.00
2023-01-05T00:12:04.673Z,100.00
2023-01-05T00:14:52.215Z,100.00
2023-01-05T00:17:41.293Z,100.00
2023-01-05T00:20:38.551Z,100.00
2023-01-05T00:23:06.941Z,100.00
2023-01-05T00:25:39.102Z,100.00
2023-01-05T00:28:06.330Z,100.00
2023-01-05T00:30:40.482Z,100.00
2023-01-05T00:33:13.197Z,100.00
2023-01-05T00:35:40.832Z,100.00
2023-01-05T00:38:09.337Z,100.00
2023-01-05T00:40:36.734Z,100.00
2023-01-05T00:43:04.429Z,100.00
2023-01-05T00:45:31.448Z,100.00
2023-01-05T00:47:58.329Z,100.00
2023-01-05T00:50:26.745Z,100.00
2023-01-05T00:52:53.694Z,100.00
2023-01-05T00:55:20.778Z,100.00
2023-01-05T00:57:48.758Z,100.00
2023-01-05T01:00:19.797Z,100.00
2023-01-05T01:02:47.957Z,100.00
2023-01-05T01:05:15.144Z,100.00
2023-01-05T01:07:42.262Z,100.00
2023-01-05T01:10:11.331Z,100.00
2023-01-05T01:12:38.303Z,100.00
2023-01-05T01:15:06.574Z,100.00
2023-01-05T01:17:34.364Z,100.00
2023-01-05T01:20:01.289Z,100.00
2023-01-05T01:22:28.374Z,100.00
2023-01-05T01:24:55.315Z,100.00
2023-01-05T01:27:22.318Z,100.00
2023-01-05T01:29:51.764Z,100.00
2023-01-05T01:32:18.939Z,100.00
2023-01-05T01:34:46.064Z,100.00
2023-01-05T01:37:13.471Z,100.00
2023-01-05T01:39:40.464Z,100.00
2023-01-05T01:42:16.855Z,100.00
2023-01-05T01:44:59.936Z,100.00
2023-01-05T01:47:41.002Z,100.00
2023-01-05T01:50:37.609Z,100.00
2023-01-05T01:53:13.157Z,100.00
2023-01-05T01:55:40.726Z,100.00
2023-01-05T01:58:13.994Z,100.00
2023-01-05T02:00:42.048Z,100.00
2023-01-05T02:03:10.626Z,100.00
2023-01-05T02:05:38.427Z,100.00
2023-01-05T02:08:13.445Z,100.00
2023-01-05T02:11:01.137Z,100.00
2023-01-05T02:14:17.382Z,100.00
2023-01-05T02:17:07.277Z,100.00
2023-01-05T02:20:30.698Z,100.00
2023-01-05T02:23:39.045Z,100.00
2023-01-05T02:26:50.133Z,100.00
2023-01-05T02:29:30.924Z,100.00
2023-01-05T02:32:37.668Z,100.00
2023-01-05T02:35:28.073Z,100.00
2023-01-05T02:38:23.750Z,100.00
2023-01-05T02:40:58.522Z,100.00
2023-01-05T02:43:27.421Z,100.00
2023-01-05T02:45:56.635Z,100.00
2023-01-05T02:48:23.767Z,100.00
2023-01-05T02:51:01.535Z,100.00
2023-01-05T02:53:43.599Z,100.00
2023-01-05T02:56:17.962Z,100.00
2023-01-05T02:58:55.089Z,100.00
2023-01-05T03:01:34.781Z,100.00
2023-01-05T03:04:20.931Z,100.00
2023-01-05T03:06:56.885Z,100.00
2023-01-05T03:09:28.958Z,100.00
2023-01-05T03:12:22.193Z,100.00
2023-01-05T03:14:55.750Z,100.00
2023-01-05T03:17:59.054Z,100.00
2023-01-05T03:20:31.739Z,100.00
2023-01-05T03:23:20.316Z,100.00
2023-01-05T03:26:09.029Z,100.00
2023-01-05T03:29:00.249Z,100.00
2023-01-05T03:31:57.702Z,100.00
2023-01-05T03:34:50.822Z,100.00
2023-01-05T03:37:25.899Z,100.00
2023-01-05T03:39:53.286Z,100.00
2023-01-05T03:42:20.834Z,100.00
2023-01-05T03:44:49.551Z,100.00
2023-01-05T03:47:19.427Z,100.00
2023-01-05T03:49:46.495Z,100.00
2023-01-05T03:52:37.203Z,100.00
2023-01-05T03:55:09.000Z,100.00
2023-01-05T03:57:41.762Z,100.00
2023-01-05T04:00:10.043Z,100.00
2023-01-05T04:02:37.154Z,100.00
2023-01-05T04:05:07.402Z,100.00
2023-01-05T04:07:34.536Z,100.00
2023-01-05T04:10:01.619Z,100.00
2023-01-05T04:12:39.637Z,100.00
2023-01-05T04:15:07.359Z,100.00
2023-01-05T04:17:34.590Z,100.00
2023-01-05T04:20:01.921Z,100.00
2023-01-05T04:22:29.333Z,100.00
2023-01-05T04:24:56.468Z,100.00
2023-01-05T04:27:23.646Z,100.00
2023-01-05T04:29:50.674Z,100.00
2023-01-05T04:32:17.681Z,100.00
2023-01-05T04:34:45.967Z,100.00
2023-01-05T04:37:13.140Z,100.00
2023-01-05T04:39:54.081Z,100.00
2023-01-05T04:42:30.788Z,100.00
2023-01-05T04:44:58.122Z,100.00
2023-01-05T04:47:25.295Z,100.00
2023-01-05T04:50:10.994Z,100.00
2023-01-05T04:52:38.841Z,100.00
2023-01-05T04:55:06.675Z,100.00
2023-01-05T04:57:34.118Z,100.00
2023-01-05T05:00:01.280Z,100.00
2023-01-05T05:02:29.197Z,100.00
2023-01-05T05:04:59.631Z,100.00
2023-01-05T05:07:26.708Z,100.00
2023-01-05T05:09:53.875Z,100.00
2023-01-05T05:12:28.128Z,100.00
2023-01-05T05:14:55.157Z,100.00
2023-01-05T05:17:22.713Z,100.00
2023-01-05T05:19:49.971Z,100.00
2023-01-05T05:22:17.129Z,100.00
2023-01-05T05:24:45.514Z,100.00
2023-01-05T05:27:12.955Z,100.00
2023-01-05T05:29:40.108Z,100.00
2023-01-05T05:32:10.735Z,100.00
2023-01-05T05:34:39.492Z,100.00
2023-01-05T05:37:06.988Z,100.00
2023-01-05T05:39:33.997Z,100.00
2023-01-05T05:42:00.985Z,100.00
2023-01-05T05:44:28.126Z,100.00
2023-01-05T05:46:55.287Z,100.00
2023-01-05T05:49:48.668Z,100.00
2023-01-05T05:52:20.633Z,100.00
2023-01-05T05:54:47.679Z,100.00
2023-01-05T05:57:14.910Z,100.00
2023-01-05T05:59:41.780Z,100.00
2023-01-05T06:02:08.937Z,100.00
2023-01-05T06:04:38.727Z,100.00
2023-01-05T06:07:05.890Z,100.00
2023-01-05T06:09:32.820Z,100.00
2023-01-05T06:11:59.917Z,100.00
2023-01-05T06:14:27.125Z,100.00
2023-01-05T06:16:54.301Z,100.00
2023-01-05T06:19:21.279Z,100.00
2023-01-05T06:21:48.347Z,100.00
2023-01-05T06:24:15.683Z,100.00
2023-01-05T06:26:46.154Z,100.00
2023-01-05T06:29:13.187Z,100.00
2023-01-05T06:31:40.200Z,100.00
2023-01-05T06:34:07.219Z,100.00
2023-01-05T06:36:34.367Z,100.00
2023-01-05T06:39:01.354Z,100.00
2023-01-05T06:41:31.108Z,100.00
2023-01-05T06:43:58.236Z,100.00
2023-01-05T06:46:25.251Z,100.00
2023-01-05T06:49:03.902Z,100.00
2023-01-05T06:51:30.986Z,100.00
2023-01-05T06:53:58.317Z,100.00
2023-01-05T06:56:25.212Z,100.00
2023-01-05T06:58:52.188Z,100.00
2023-01-05T07:01:19.750Z,100.00
2023-01-05T07:03:46.579Z,100.00
2023-01-05T07:06:15.304Z,100.00
2023-01-05T07:08:43.256Z,100.00
2023-01-05T07:11:10.165Z,100.00
2023-01-05T07:13:37.081Z,100.00
2023-01-05T07:16:03.946Z,100.00
2023-01-05T07:18:30.739Z,100.00
2023-01-05T07:21:00.797Z,100.00
2023-01-05T07:23:27.708Z,100.00
2023-01-05T07:25:54.459Z,100.00
2023-01-05T07:28:21.255Z,100.00
2023-01-05T07:30:53.948Z,100.00
2023-01-05T07:33:20.843Z,100.00
2023-01-05T07:35:47.685Z,100.00
2023-01-05T07:38:14.414Z,100.00
2023-01-05T07:40:41.151Z,100.00
2023-01-05T07:43:08.006Z,100.00
2023-01-05T07:45:34.794Z,100.00
2023-01-05T07:48:03.435Z,100.00
2023-01-05T07:50:30.189Z,100.00
2023-01-05T07:52:59.897Z,99.17
2023-01-05T07:55:26.683Z,98.13
2023-01-05T07:57:53.655Z,98.26
2023-01-05T08:00:20.573Z,99.07
2023-01-05T08:02:47.337Z,98.52
2023-01-05T08:05:14.131Z,99.17
2023-01-05T08:07:41.089Z,97.35
2023-01-05T08:10:26.695Z,95.66
2023-01-05T08:13:11.881Z,95.21
2023-01-05T08:15:38.779Z,95.76
2023-01-05T08:18:05.540Z,96.24
2023-01-05T08:20:32.330Z,95.95
2023-01-05T08:22:59.050Z,97.06
2023-01-05T08:25:25.811Z,97.53
2023-01-05T08:27:52.515Z,97.52
2023-01-05T08:30:19.636Z,99.06
2023-01-05T08:32:46.384Z,100.00
2023-01-05T08:35:13.126Z,100.00
2023-01-05T08:37:39.887Z,100.00
2023-01-05T08:40:09.241Z,100.00
2023-01-05T08:42:35.989Z,100.00
2023-01-05T08:45:03.889Z,100.00
2023-01-05T08:47:30.647Z,100.00
2023-01-05T08:49:57.364Z,100.00
2023-01-05T08:52:24.103Z,100.00
2023-01-05T08:54:51.074Z,100.00
2023-01-05T08:57:17.866Z,100.00
2023-01-05T08:59:44.610Z,100.00
2023-01-05T09:02:12.840Z,100.00
2023-01-05T09:04:39.845Z,100.00
2023-01-05T09:07:06.672Z,100.00
2023-01-05T09:09:33.665Z,100.00
2023-01-05T09:12:00.506Z,100.00
2023-01-05T09:14:27.241Z,100.00
2023-01-05T09:17:09.836Z,100.00
2023-01-05T09:19:37.108Z,100.00
2023-01-05T09:22:04.127Z,100.00
2023-01-05T09:24:30.883Z,100.00
2023-01-05T09:26:57.822Z,100.00
2023-01-05T09:29:24.879Z,100.00
2023-01-05T09:31:51.734Z,100.00
2023-01-05T09:34:19.191Z,100.00
2023-01-05T09:36:46.298Z,100.00
2023-01-05T09:39:13.077Z,100.00
2023-01-05T09:41:47.932Z,100.00
2023-01-05T09:44:30.324Z,100.00
2023-01-05T09:47:13.862Z,100.00
2023-01-05T09:49:41.974Z,100.00
2023-01-05T09:52:10.936Z,100.00
2023-01-05T09:54:39.770Z,100.00
2023-01-05T09:57:15.243Z,100.00
2023-01-05T09:59:47.643Z,100.00
2023-01-05T10:02:53.005Z,100.00
2023-01-05T10:05:22.110Z,100.00
2023-01-05T10:08:00.923Z,100.00
2023-01-05T10:11:17.179Z,100.00
2023-01-05T10:14:00.205Z,100.00
2023-01-05T10:16:29.871Z,100.00
2023-01-05T10:18:57.103Z,100.00
2023-01-05T10:22:01.352Z,100.00
2023-01-05T10:24:54.125Z,100.00
2023-01-05T10:27:56.636Z,100.00
2023-01-05T10:31:00.071Z,100.00
2023-01-05T10:33:56.680Z,100.00
2023-01-05T10:37:10.455Z,100.00
2023-01-05T10:39:56.251Z,100.00
2023-01-05T10:42:54.959Z,100.00
2023-01-05T10:45:22.172Z,100.00
2023-01-05T10:47:50.297Z,100.00
2023-01-05T10:50:40.843Z,100.00
2023-01-05T10:53:22.890Z,100.00
2023-01-05T10:56:30.763Z,100.00
2023-01-05T10:59:12.576Z,100.00
2023-01-05T11:01:46.074Z,100.00
2023-01-05T11:04:34.557Z,100.00
2023-01-05T11:07:05.036Z,99.26
2023-01-05T11:09:32.025Z,98.63
2023-01-05T11:12:02.348Z,95.10
2023-01-05T11:14:42.983Z,94.27
2023-01-05T11:17:22.556Z,87.24
2023-01-05T11:19:56.604Z,88.36
2023-01-05T11:22:48.401Z,87.14
2023-01-05T11:25:30.801Z,89.12
2023-01-05T11:28:17.531Z,86.24
2023-01-05T11:31:04.644Z,85.27
2023-01-05T11:33:35.231Z,83.14
2023-01-05T11:36:04.790Z,81.30
2023-01-05T11:38:32.010Z,81.04
2023-01-05T11:41:00.927Z,82.58
2023-01-05T11:43:30.628Z,78.90
2023-01-05T11:46:01.088Z,77.32
2023-01-05T11:48:32.294Z,78.53
2023-01-05T11:50:59.205Z,76.45
2023-01-05T11:53:25.916Z,75.45
2023-01-05T11:56:02.656Z,76.39
2023-01-05T11:58:44.196Z,75.96
2023-01-05T12:01:37.808Z,76.23
2023-01-05T12:04:39.072Z,72.94
2023-01-05T12:07:22.422Z,71.00
2023-01-05T12:10:21.425Z,74.48
2023-01-05T12:13:27.759Z,75.32
2023-01-05T12:16:21.468Z,75.75
2023-01-05T12:19:12.677Z,75.30
2023-01-05T12:21:48.430Z,74.59
2023-01-05T12:24:44.478Z,76.26
2023-01-05T12:27:33.019Z,73.97
2023-01-05T12:34:11.193Z,74.09
2023-01-05T12:36:45.689Z,75.59
2023-01-05T12:39:46.074Z,75.51
2023-01-05T12:42:34.462Z,74.52
2023-01-05T12:45:43.400Z,75.31
2023-01-05T12:48:18.883Z,73.31
2023-01-05T12:51:04.634Z,74.37
2023-01-05T12:53:55.620Z,74.36
2023-01-05T12:56:48.350Z,73.92
2023-01-05T12:59:42.995Z,75.68
2023-01-05T13:02:16.204Z,74.53
2023-01-05T13:04:56.416Z,73.10
2023-01-05T13:07:39.094Z,74.29
2023-01-05T13:10:17.936Z,75.26
2023-01-05T13:12:44.686Z,75.88
2023-01-05T13:15:11.301Z,75.82
2023-01-05T13:17:47.203Z,75.39
2023-01-05T13:20:27.533Z,74.69
2023-01-05T13:23:03.150Z,75.69
2023-01-05T13:25:49.740Z,76.23
2023-01-05T13:28:26.010Z,75.50
2023-01-05T13:31:25.972Z,75.62
2023-01-05T13:33:58.688Z,76.30
2023-01-05T13:36:40.347Z,77.63
2023-01-05T13:39:25.574Z,77.25
2023-01-05T13:42:56.103Z,77.70
2023-01-05T13:46:33.578Z,78.02
2023-01-05T13:49:11.040Z,77.97
2023-01-05T13:51:47.748Z,77.65
2023-01-05T13:54:24.839Z,78.24
2023-01-05T13:56:52.527Z,78.70
2023-01-05T13:59:35.242Z,78.43
2023-01-05T14:02:30.137Z,79.29
2023-01-05T14:04:57.428Z,77.84
2023-01-05T14:07:24.864Z,79.28
2023-01-05T14:09:57.087Z,79.06
2023-01-05T14:12:42.019Z,80.76
2023-01-05T14:15:09.548Z,80.00
2023-01-05T14:17:56.075Z,79.96
2023-01-05T14:20:45.061Z,79.63
2023-01-05T14:23:23.881Z,80.28
2023-01-05T14:25:55.644Z,80.78
2023-01-05T14:28:42.163Z,79.98
2023-01-05T14:31:13.813Z,81.81
2023-01-05T14:34:14.188Z,81.85
2023-01-05T14:37:01.788Z,81.93
2023-01-05T14:39:43.953Z,81.92
2023-01-05T14:42:43.777Z,82.55
2023-01-05T14:45:39.652Z,81.89
2023-01-05T14:48:33.968Z,82.98
2023-01-05T14:51:08.532Z,83.01
2023-01-05T14:53:48.623Z,81.74
2023-01-05T14:56:27.245Z,82.23
2023-01-05T14:59:23.536Z,82.20
2023-01-05T15:02:08.481Z,82.54
2023-01-05T15:04:38.748Z,82.43
2023-01-05T15:07:45.233Z,83.63
2023-01-05T15:10:42.959Z,83.39
2023-01-05T15:13:24.977Z,83.62
2023-01-05T15:16:18.393Z,84.07
2023-01-05T15:19:00.695Z,83.99
2023-01-05T15:22:08.237Z,84.27
2023-01-05T15:25:11.639Z,84.51
2023-01-05T15:27:48.152Z,85.18
2023-01-05T15:30:34.773Z,84.97
2023-01-05T15:33:29.044Z,85.39
2023-01-05T15:36:04.859Z,85.19
2023-01-05T15:38:44.575Z,86.17
2023-01-05T15:41:14.510Z,86.23
2023-01-05T15:43:42.729Z,86.35
2023-01-05T15:46:10.875Z,86.54
2023-01-05T15:48:44.457Z,87.06
2023-01-05T15:51:22.480Z,87.54
2023-01-05T15:54:00.031Z,88.10
2023-01-05T15:56:34.150Z,88.14
2023-01-05T15:59:02.641Z,88.42
2023-01-05T16:01:30.035Z,88.68
2023-01-05T16:04:09.881Z,89.84
2023-01-05T16:06:39.745Z,90.13
2023-01-05T16:09:19.825Z,90.51
2023-01-05T16:11:49.028Z,91.15
2023-01-05T16:14:41.117Z,91.32
2023-01-05T16:17:17.268Z,91.44
2023-01-05T16:19:49.835Z,91.96
2023-01-05T16:22:42.261Z,91.89
2023-01-05T16:25:33.363Z,92.68
2023-01-05T16:28:05.335Z,93.03
2023-01-05T16:30:41.909Z,92.96
2023-01-05T16:33:15.168Z,93.39
2023-01-05T16:35:53.076Z,93.52
2023-01-05T16:38:30.849Z,93.71
2023-01-05T16:41:23.464Z,94.21
2023-01-05T16:43:53.090Z,94.21
2023-01-05T16:46:21.242Z,94.55
2023-01-05T16:48:52.375Z,94.80
2023-01-05T16:51:25.775Z,94.84
2023-01-05T16:53:59.031Z,95.02
2023-01-05T16:56:34.696Z,95.68
2023-01-05T16:59:23.348Z,95.50
2023-01-05T17:01:50.364Z,96.20
2023-01-05T17:04:18.602Z,96.19
2023-01-05T17:06:48.714Z,96.59
2023-01-05T17:09:29.354Z,96.64
2023-01-05T17:11:56.229Z,97.62
2023-01-05T17:14:24.645Z,97.46
2023-01-05T17:16:51.828Z,97.13
2023-01-05T17:19:21.547Z,98.20
2023-01-05T17:21:58.355Z,99.05
2023-01-05T17:24:27.750Z,98.82
2023-01-05T17:26:54.542Z,98.54
2023-01-05T17:29:26.618Z,98.57
2023-01-05T17:31:54.148Z,98.91
2023-01-05T17:34:21.538Z,99.45
2023-01-05T17:36:50.785Z,99.98
2023-01-05T17:39:20.143Z,100.00
2023-01-05T17:41:47.169Z,100.00
2023-01-05T17:44:14.021Z,100.00
2023-01-05T17:46:43.927Z,100.00
2023-01-05T17:49:17.195Z,100.00
2023-01-05T17:51:44.545Z,100.00
2023-01-05T17:54:12.126Z,100.00
2023-01-05T17:56:39.336Z,100.00
2023-01-05T17:59:06.511Z,100.00
2023-01-05T18:01:36.481Z,100.00
2023-01-05T18:04:03.392Z,100.00
2023-01-05T18:06:30.140Z,100.00
2023-01-05T18:08:57.446Z,100.00
2023-01-05T18:11:24.181Z,100.00
2023-01-05T18:13:51.044Z,100.00
2023-01-05T18:16:17.815Z,100.00
2023-01-05T18:18:44.612Z,100.00
2023-01-05T18:21:11.480Z,100.00
2023-01-05T18:23:38.370Z,100.00
2023-01-05T18:26:08.889Z,100.00
2023-01-05T18:28:37.368Z,100.00
2023-01-05T18:31:14.625Z,100.00
2023-01-05T18:33:41.945Z,100.00
2023-01-05T18:36:13.809Z,100.00
2023-01-05T18:38:41.605Z,100.00
2023-01-05T18:41:08.578Z,100.00
2023-01-05T18:43:36.289Z,100.00
2023-01-05T18:46:03.988Z,100.00
2023-01-05T18:48:31.569Z,100.00
2023-01-05T18:50:58.380Z,100.00
2023-01-05T18:53:25.576Z,100.00
2023-01-05T18:55:52.447Z,100.00
2023-01-05T18:58:19.261Z,100.00
2023-01-05T19:00:46.995Z,100.00
2023-01-05T19:03:14.023Z,100.00
2023-01-05T19:05:42.906Z,100.00
2023-01-05T19:08:11.109Z,100.00
2023-01-05T19:10:38.080Z,100.00
2023-01-05T19:13:05.201Z,100.00
2023-01-05T19:15:36.960Z,100.00
2023-01-05T19:18:04.634Z,100.00
2023-01-05T19:20:31.948Z,100.00
2023-01-05T19:23:00.681Z,100.00
2023-01-05T19:25:28.451Z,100.00
2023-01-05T19:27:55.362Z,100.00
2023-01-05T19:30:23.668Z,100.00
2023-01-05T19:32:51.298Z,100.00
2023-01-05T19:35:18.780Z,100.00
2023-01-05T19:37:45.701Z,100.00
2023-01-05T19:40:12.952Z,100.00
2023-01-05T19:42:40.060Z,100.00
2023-01-05T19:45:09.593Z,100.00
2023-01-05T19:47:40.667Z,100.00
2023-01-05T19:50:10.914Z,100.00
2023-01-05T19:52:38.775Z,100.00
2023-01-05T19:55:07.081Z,100.00
2023-01-05T19:57:33.796Z,100.00
2023-01-05T20:00:00.612Z,100.00
2023-01-05T20:02:27.552Z,100.00
2023-01-05T20:04:54.431Z,100.00
2023-01-05T20:07:22.403Z,100.00
2023-01-05T20:09:50.916Z,100.00
2023-01-05T20:12:17.735Z,100.00
2023-01-05T20:14:44.658Z,100.00
2023-01-05T20:17:12.967Z,100.00
2023-01-05T20:19:40.272Z,100.00
2023-01-05T20:22:13.899Z,100.00
2023-01-05T20:24:41.919Z,100.00
2023-01-05T20:27:12.689Z,100.00
2023-01-05T20:29:40.658Z,100.00
2023-01-05T20:32:13.093Z,100.00
2023-01-05T20:34:41.977Z,100.00
2023-01-05T20:37:10.999Z,100.00
2023-01-05T20:39:40.322Z,100.00
2023-01-05T20:42:07.156Z,100.00
2023-01-05T20:44:37.814Z,100.00
2023-01-05T20:47:06.775Z,100.00
2023-01-05T20:49:36.050Z,100.00
2023-01-05T20:52:03.724Z,100.00
2023-01-05T20:54:30.737Z,100.00
2023-01-05T20:56:57.530Z,100.00
2023-01-05T20:59:27.646Z,100.00
2023-01-05T21:01:55.151Z,100.00
2023-01-05T21:04:23.901Z,100.00
2023-01-05T21:06:54.367Z,100.00
2023-01-05T21:09:23.220Z,100.00
2023-01-05T21:11:50.119Z,100.00
2023-01-05T21:14:19.708Z,100.00
2023-01-05T21:16:50.270Z,100.00
2023-01-05T21:19:21.968Z,100.00
2023-01-05T21:21:55.300Z,100.00
2023-01-05T21:24:23.327Z,100.00
2023-01-05T21:26:50.248Z,100.00
2023-01-05T21:29:20.358Z,100.00
2023-01-05T21:31:47.193Z,100.00
2023-01-05T21:34:15.104Z,100.00
2023-01-05T21:36:45.405Z,100.00
2023-01-05T21:39:19.998Z,100.00
2023-01-05T21:42:06.449Z,100.00
2023-01-05T21:44:34.037Z,100.00
2023-01-05T21:47:00.967Z,100.00
2023-01-05T21:49:27.919Z,100.00
2023-01-05T21:52:13.067Z,100.00
2023-01-05T21:54:58.733Z,100.00
2023-01-05T21:57:25.598Z,100.00
2023-01-05T21:59:52.413Z,100.00
2023-01-05T22:02:19.202Z,100.00
2023-01-05T22:04:46.243Z,100.00
2023-01-05T22:07:13.056Z,100.00
2023-01-05T22:09:39.873Z,100.00
2023-01-05T22:12:09.119Z,100.00
2023-01-05T22:14:37.882Z,100.00
2023-01-05T22:17:07.093Z,100.00
2023-01-05T22:19:34.628Z,100.00
2023-01-05T22:22:01.460Z,100.00
2023-01-05T22:24:28.250Z,100.00
2023-01-05T22:26:54.991Z,100.00
2023-01-05T22:29:21.968Z,100.00
2023-01-05T22:31:50.981Z,100.00
2023-01-05T22:34:18.344Z,100.00
2023-01-05T22:36:45.483Z,100.00
2023-01-05T22:39:12.457Z,100.00
2023-01-05T22:41:39.530Z,100.00
2023-01-05T22:44:06.907Z,100.00
2023-01-05T22:46:34.307Z,100.00
2023-01-05T22:49:01.093Z,100.00
2023-01-05T22:51:32.977Z,100.00
2023-01-05T22:54:00.670Z,100.00
2023-01-05T22:56:29.464Z,100.00
2023-01-05T22:58:56.886Z,100.00
2023-01-05T23:01:29.863Z,100.00
2023-01-05T23:03:57.991Z,100.00
2023-01-05T23:06:26.050Z,100.00
2023-01-05T23:08:53.901Z,100.00
2023-01-05T23:11:24.904Z,100.00
2023-01-05T23:13:53.067Z,100.00
2023-01-05T23:16:21.400Z,100.00
2023-01-05T23:18:49.855Z,100.00
2023-01-05T23:21:18.737Z,100.00
2023-01-05T23:23:46.151Z,100.00
2023-01-05T23:26:15.931Z,100.00
2023-01-05T23:28:44.609Z,100.00
2023-01-05T23:31:14.655Z,100.00
2023-01-05T23:33:42.730Z,100.00
2023-01-05T23:36:11.796Z,100.00
2023-01-05T23:38:39.094Z,100.00
2023-01-05T23:41:08.462Z,100.00
2023-01-05T23:43:39.035Z,100.00
2023-01-05T23:46:09.754Z,100.00
2023-01-05T23:48:37.777Z,100.00
2023-01-05T23:51:07.861Z,100.00
2023-01-05T23:53:34.740Z,100.00
2023-01-05T23:56:18.110Z,100.00
2023-01-05T23:58:45.091Z,100.00
